This is the latest recevied weather packets stored in our database for station/object KC8ZBC. If no packets are shown the sender has not sent any weather packets the latest 10 day(s).
| Time | Temp. | Humidity | Pressure | Rain* | Wind** | Luminosity | Snow |
|---|---|---|---|---|---|---|---|
| 1777827705 | 14.44° C | 44% | 986.4 hPa | 0 mm | - | 289 W/m² | - |
| 1777827402 | 14.44° C | 45% | 986.2 hPa | 0 mm | - | 311 W/m² | - |
| 1777827099 | 13.89° C | 45% | 986.6 hPa | 0 mm | - | 226 W/m² | - |
| 1777826795 | 13.33° C | 45% | 986.5 hPa | 0 mm | - | 150 W/m² | - |
| 1777826493 | 13.89° C | 43% | 986.8 hPa | 0 mm | - | 262 W/m² | - |
| 1777826189 | 13.89° C | 44% | 986.8 hPa | 0 mm | - | 275 W/m² | - |
| 1777825887 | 14.44° C | 43% | 986.6 hPa | 0 mm | - | 324 W/m² | - |
| 1777825584 | 13.33° C | 45% | 986.9 hPa | 0 mm | - | 313 W/m² | - |
| 1777825282 | 12.78° C | 48% | 986.8 hPa | 0 mm | - | 257 W/m² | - |
| 1777824978 | 12.78° C | 46% | 986.9 hPa | 0 mm | - | 165 W/m² | - |
| 1777824674 | 12.78° C | 45% | 987 hPa | 0 mm | - | 149 W/m² | - |
| 1777824372 | 12.78° C | 46% | 986.8 hPa | 0 mm | - | 250 W/m² | - |
| 1777824067 | 12.78° C | 46% | 987.1 hPa | 0 mm | - | 180 W/m² | - |
| 1777823764 | 12.78° C | 46% | 987.3 hPa | 0 mm | - | 154 W/m² | - |
| 1777823461 | 13.33° C | 46% | 987.3 hPa | 0 mm | - | 214 W/m² | - |
| 1777823158 | 12.78° C | 47% | 987.5 hPa | 0 mm | - | 440 W/m² | - |
| 1777822856 | 12.22° C | 46% | 987.5 hPa | 0 mm | - | 241 W/m² | - |
| 1777822554 | 12.22° C | 47% | 987.4 hPa | 0 mm | - | 148 W/m² | - |
| 1777822251 | 12.22° C | 47% | 987.5 hPa | 0 mm | - | 119 W/m² | - |
| 1777821948 | 12.22° C | 47% | 987.5 hPa | 0 mm | - | 89 W/m² | - |
| 1777821646 | 12.22° C | 46% | 987.4 hPa | 0 mm | - | 78 W/m² | - |
| 1777821344 | 12.78° C | 46% | 987.5 hPa | 0 mm | - | 54 W/m² | - |
| 1777821041 | 12.78° C | 46% | 987.5 hPa | 0 mm | - | 57 W/m² | - |
| 1777820737 | 13.33° C | 45% | 987.4 hPa | 0 mm | - | 93 W/m² | - |
| 1777820433 | 13.89° C | 44% | 987.3 hPa | 0 mm | - | 143 W/m² | - |
* Rain latest hour (hover to see other rain measurements)
** Current wind speed in m/s (hover to see current wind gust speed)